createdAt,value
2019-04-06T00:00:16.621Z,55.66
2019-04-06T00:05:17.985Z,55.76
2019-04-06T00:10:20.152Z,55.80
2019-04-06T00:15:21.564Z,55.88
2019-04-06T00:20:23.721Z,55.77
2019-04-06T00:25:25.863Z,55.80
2019-04-06T00:30:27.240Z,55.78
2019-04-06T00:35:28.623Z,55.81
2019-04-06T00:40:30.786Z,55.90
2019-04-06T00:45:32.264Z,55.89
2019-04-06T00:50:34.050Z,55.86
2019-04-06T00:55:35.416Z,55.92
2019-04-06T01:00:36.838Z,55.87
2019-04-06T01:05:38.205Z,55.98
2019-04-06T01:10:39.710Z,56.02
2019-04-06T01:15:41.066Z,56.45
2019-04-06T01:20:42.425Z,56.35
2019-04-06T01:25:43.842Z,56.37
2019-04-06T01:30:45.223Z,56.40
2019-04-06T01:35:46.644Z,56.25
2019-04-06T01:40:48.034Z,56.59
2019-04-06T01:45:50.157Z,56.62
2019-04-06T01:50:51.617Z,56.53
2019-04-06T01:55:52.955Z,56.70
2019-04-06T02:06:24.219Z,57.34
2019-04-06T02:11:26.645Z,56.80
2019-04-06T02:16:28.061Z,56.54
2019-04-06T02:21:38.385Z,56.42
2019-04-06T02:26:39.779Z,56.22
2019-04-06T02:31:45.156Z,56.10
2019-04-06T02:36:49.380Z,56.38
2019-04-06T02:41:50.812Z,56.36
2019-04-06T02:46:52.316Z,56.38
2019-04-06T02:51:53.728Z,56.38
2019-04-06T02:56:55.951Z,56.54
2019-04-06T03:01:57.472Z,56.92
2019-04-06T03:06:58.865Z,56.93
2019-04-06T03:12:00.277Z,56.78
2019-04-06T03:17:02.464Z,56.88
2019-04-06T03:22:04.314Z,57.01
2019-04-06T03:27:06.286Z,57.03
2019-04-06T03:32:08.023Z,56.99
2019-04-06T03:37:09.164Z,57.30
2019-04-06T03:42:11.735Z,57.21
2019-04-06T03:47:12.840Z,57.22
2019-04-06T03:52:14.238Z,57.15
2019-04-06T03:57:16.982Z,57.12
2019-04-06T04:02:16.961Z,57.10
2019-04-06T04:07:19.351Z,57.17
2019-04-06T04:12:20.788Z,57.21
2019-04-06T04:17:22.736Z,57.07
2019-04-06T04:22:23.927Z,57.14
2019-04-06T04:27:29.305Z,57.45
2019-04-06T04:32:27.357Z,57.39
2019-04-06T04:37:29.880Z,57.39
2019-04-06T04:42:46.057Z,57.44
2019-04-06T04:47:54.603Z,57.26
2019-04-06T04:52:55.941Z,57.23
2019-04-06T04:57:57.327Z,57.10
2019-04-06T05:02:59.441Z,57.07
2019-04-06T05:08:00.927Z,56.95
2019-04-06T05:13:02.457Z,57.06
2019-04-06T05:18:04.270Z,57.11
2019-04-06T05:23:05.721Z,57.21
2019-04-06T05:28:07.481Z,57.21
2019-04-06T05:33:08.742Z,57.32
2019-04-06T05:38:10.189Z,57.26
2019-04-06T05:43:11.621Z,57.50
2019-04-06T05:48:13.144Z,57.52
2019-04-06T05:53:14.674Z,57.29
2019-04-06T05:58:16.753Z,57.19
2019-04-06T06:03:18.934Z,57.14
2019-04-06T06:08:21.188Z,57.06
2019-04-06T06:13:22.612Z,57.15
2019-04-06T06:18:27.411Z,57.12
2019-04-06T06:23:25.497Z,57.03
2019-04-06T06:28:27.367Z,57.03
2019-04-06T06:33:28.808Z,56.76
2019-04-06T06:38:30.167Z,56.74
2019-04-06T06:43:31.556Z,56.58
2019-04-06T06:48:33.024Z,56.51
2019-04-06T06:53:34.650Z,56.64
2019-04-06T06:58:36.050Z,56.44
2019-04-06T07:03:37.676Z,56.36
2019-04-06T07:08:39.886Z,56.29
2019-04-06T07:13:41.398Z,56.44
2019-04-06T07:18:43.065Z,56.60
2019-04-06T07:23:48.459Z,56.42
2019-04-06T07:28:58.070Z,55.97
2019-04-06T07:34:06.588Z,56.05
2019-04-06T07:39:08.077Z,56.01
2019-04-06T07:44:09.531Z,56.09
2019-04-06T07:49:11.152Z,56.59
2019-04-06T07:54:12.682Z,56.49
2019-04-06T07:59:14.034Z,56.27
2019-04-06T08:04:15.677Z,55.79
2019-04-06T08:09:17.093Z,56.12
2019-04-06T08:14:18.690Z,55.93
2019-04-06T08:19:20.081Z,55.29
2019-04-06T08:24:21.526Z,54.96
2019-04-06T08:29:23.027Z,54.64
2019-04-06T08:34:24.580Z,54.33
2019-04-06T08:39:26.350Z,52.83
2019-04-06T08:44:27.971Z,53.81
2019-04-06T08:49:29.426Z,53.23
2019-04-06T08:54:30.868Z,53.04
2019-04-06T08:59:32.520Z,53.11
2019-04-06T09:04:33.708Z,53.22
2019-04-06T09:09:35.146Z,53.67
2019-04-06T09:14:45.781Z,51.96
2019-04-06T09:19:47.345Z,51.64
2019-04-06T09:24:48.850Z,52.10
2019-04-06T09:29:51.066Z,51.58
2019-04-06T09:34:52.528Z,51.93
2019-04-06T09:39:54.739Z,51.53
2019-04-06T09:44:57.180Z,50.26
2019-04-06T09:50:03.382Z,51.08
2019-04-06T09:55:06.555Z,50.64
2019-04-06T10:00:14.128Z,50.11
2019-04-06T10:05:15.482Z,49.73
2019-04-06T10:10:18.694Z,48.67
2019-04-06T10:15:26.344Z,48.94
2019-04-06T10:20:32.553Z,48.08
2019-04-06T10:25:40.770Z,48.68
2019-04-06T10:36:14.681Z,48.42
2019-04-06T10:41:36.549Z,46.96
2019-04-06T10:46:39.757Z,46.33
2019-04-06T10:51:47.178Z,46.40
2019-04-06T10:56:50.470Z,45.44
2019-04-06T11:02:02.768Z,45.86
2019-04-06T11:07:10.319Z,46.39
2019-04-06T11:12:14.610Z,45.31
2019-04-06T11:22:43.612Z,44.96
2019-04-06T11:27:50.949Z,44.68
2019-04-06T11:32:58.692Z,44.57
2019-04-06T11:38:00.851Z,44.01
2019-04-06T11:48:35.114Z,43.88
2019-04-06T11:53:37.993Z,43.22
2019-04-06T11:58:40.397Z,42.84
2019-04-06T12:03:46.075Z,42.56
2019-04-06T12:08:47.617Z,42.55
2019-04-06T12:13:50.981Z,41.13
2019-04-06T12:24:35.057Z,41.00
2019-04-06T12:35:13.361Z,40.44
2019-04-06T12:40:16.862Z,40.05
2019-04-06T12:45:22.103Z,39.53
2019-04-06T12:50:29.666Z,38.82
2019-04-06T13:01:14.614Z,38.12
2019-04-06T13:06:23.243Z,37.67
2019-04-06T13:11:30.784Z,37.75
2019-04-06T13:16:33.307Z,37.08
2019-04-06T13:21:46.178Z,35.77
2019-04-06T13:26:48.469Z,35.70
2019-04-06T13:37:40.556Z,34.05
2019-04-06T13:48:14.925Z,33.20
2019-04-06T13:53:18.046Z,33.50
2019-04-06T13:58:23.491Z,32.61
2019-04-06T14:09:12.607Z,30.87
2019-04-06T14:14:19.913Z,29.33
2019-04-06T14:19:24.962Z,29.55
2019-04-06T14:24:30.850Z,29.78
2019-04-06T14:35:31.165Z,28.87
2019-04-06T14:40:35.700Z,29.47
2019-04-06T14:45:36.748Z,28.97
2019-04-06T14:50:38.434Z,29.25
2019-04-06T14:55:52.419Z,29.18
2019-04-06T15:06:37.497Z,27.01
2019-04-06T15:11:38.956Z,25.73
2019-04-06T15:22:12.546Z,23.89
2019-04-06T15:27:20.965Z,23.28
2019-04-06T15:32:26.123Z,23.34
2019-04-06T15:37:28.403Z,22.99
2019-04-06T15:53:41.257Z,24.42
2019-04-06T15:58:42.613Z,26.48
2019-04-06T16:04:00.268Z,27.31
2019-04-06T16:09:03.053Z,27.88
2019-04-06T16:14:05.146Z,28.56
2019-04-06T16:19:09.386Z,30.37
2019-04-06T16:24:10.740Z,31.01
2019-04-06T16:29:13.898Z,30.32
2019-04-06T16:34:23.412Z,30.56
2019-04-06T16:44:59.336Z,30.99
2019-04-06T16:50:00.646Z,30.46
2019-04-06T16:55:05.735Z,29.44
2019-04-06T17:00:18.495Z,30.26
2019-04-06T17:05:12.277Z,29.68
2019-04-06T17:10:17.008Z,29.96
2019-04-06T17:15:37.059Z,29.96
2019-04-06T17:20:54.255Z,31.71
2019-04-06T17:25:55.762Z,32.42
2019-04-06T17:30:58.892Z,33.17
2019-04-06T17:41:32.928Z,34.37
2019-04-06T17:52:12.153Z,35.10
2019-04-06T17:57:20.311Z,34.79
2019-04-06T18:02:23.499Z,34.89
2019-04-06T18:07:27.771Z,35.11
2019-04-06T18:12:35.479Z,36.13
2019-04-06T18:17:36.801Z,35.99
2019-04-06T18:22:39.124Z,35.78
2019-04-06T18:27:40.193Z,36.28
2019-04-06T18:32:42.490Z,36.26
2019-04-06T18:37:54.626Z,36.24
2019-04-06T18:42:55.778Z,36.29
2019-04-06T18:47:58.936Z,36.40
2019-04-06T18:53:00.249Z,36.70
2019-04-06T18:58:10.361Z,37.05
2019-04-06T19:03:15.130Z,37.23
2019-04-06T19:08:13.193Z,37.31
2019-04-06T19:13:23.175Z,37.37
2019-04-06T19:18:24.260Z,37.80
2019-04-06T19:23:25.549Z,37.71
2019-04-06T19:28:26.901Z,38.35
2019-04-06T19:33:28.369Z,38.03
2019-04-06T19:38:29.976Z,38.55
2019-04-06T19:43:31.040Z,38.70
2019-04-06T19:48:32.379Z,38.68
2019-04-06T19:53:34.594Z,38.87
2019-04-06T19:58:37.063Z,39.14
2019-04-06T20:03:39.388Z,40.01
2019-04-06T20:08:39.888Z,39.53
2019-04-06T20:13:42.362Z,39.82
2019-04-06T20:18:43.475Z,39.75
2019-04-06T20:23:44.885Z,39.65
2019-04-06T20:28:46.862Z,39.79
2019-04-06T20:33:51.575Z,40.28
2019-04-06T20:38:49.127Z,40.21
2019-04-06T20:43:50.725Z,39.76
2019-04-06T20:48:52.564Z,39.86
2019-04-06T20:53:55.142Z,40.02
2019-04-06T20:58:56.494Z,40.55
2019-04-06T21:04:00.863Z,40.70
2019-04-06T21:08:58.681Z,40.75
2019-04-06T21:14:00.003Z,40.26
2019-04-06T21:19:02.518Z,40.80
2019-04-06T21:24:04.690Z,40.91
2019-04-06T21:29:06.326Z,40.86
2019-04-06T21:34:12.019Z,41.14
2019-04-06T21:39:08.480Z,41.28
2019-04-06T21:44:10.068Z,41.48
2019-04-06T21:49:12.264Z,41.22
2019-04-06T21:54:13.949Z,41.32
2019-04-06T21:59:16.728Z,41.35
2019-04-06T22:04:23.736Z,41.33
2019-04-06T22:09:18.906Z,41.48
2019-04-06T22:14:20.963Z,41.52
2019-04-06T22:19:22.508Z,41.66
2019-04-06T22:24:23.966Z,41.79
2019-04-06T22:29:25.062Z,41.90
2019-04-06T22:34:36.409Z,42.04
2019-04-06T22:39:28.324Z,42.14
2019-04-06T22:44:29.132Z,41.85
2019-04-06T22:49:30.649Z,42.19
2019-04-06T22:54:32.262Z,42.25
2019-04-06T22:59:33.640Z,41.91
2019-04-06T23:04:48.491Z,42.11
2019-04-06T23:09:44.037Z,42.09
2019-04-06T23:14:45.484Z,42.26
2019-04-06T23:19:46.890Z,42.19
2019-04-06T23:24:56.812Z,42.22
2019-04-06T23:29:58.767Z,42.29
2019-04-06T23:35:01.976Z,42.59
2019-04-06T23:40:00.923Z,42.67
2019-04-06T23:45:02.509Z,42.43
2019-04-06T23:50:03.651Z,42.71
2019-04-06T23:55:05.065Z,42.65
